Time;durP1;ratioP1;P1;durP2;ratioP2;P2;SDS_P1;SDS_P2;PMS_P1;PMS_P2;Temp;Humidity;BMP_temperature;BMP_pressure;BME280_temperature;BME280_humidity;BME280_pressure;Samples;Min_cycle;Max_cycle;Signal;HPM_P1;HPM_P2
2021/01/20 00:00:37;;;;;;;119.57;67.43;;;;;;;;;;6207487;28;20041;-65
2021/01/20 00:03:38;;;;;;;114.95;65.68;;;;;;;;;;6207433;28;20050;-67
2021/01/20 00:06:40;;;;;;;117.20;66.25;;;;;;;;;;6209903;28;20054;-65
2021/01/20 00:09:41;;;;;;;117.97;64.70;;;;;;;;;;6211403;28;20216;-68
2021/01/20 00:12:43;;;;;;;117.25;65.80;;;;;;;;;;6206986;28;20048;-65
2021/01/20 00:15:44;;;;;;;121.88;67.80;;;;;;;;;;6205186;28;20046;-66
2021/01/20 00:18:45;;;;;;;121.55;66.90;;;;;;;;;;6201142;28;20052;-66
2021/01/20 00:21:47;;;;;;;125.35;68.80;;;;;;;;;;6221068;28;20057;-67
2021/01/20 00:24:48;;;;;;;154.38;82.35;;;;;;;;;;6208808;28;20049;-66
2021/01/20 00:27:49;;;;;;;134.38;71.20;;;;;;;;;;6211305;28;20089;-65
2021/01/20 00:30:50;;;;;;;140.85;75.22;;;;;;;;;;6208190;28;20076;-67
2021/01/20 00:33:51;;;;;;;127.53;69.30;;;;;;;;;;6212936;28;20041;-66
2021/01/20 00:36:53;;;;;;;122.88;65.43;;;;;;;;;;6209187;28;20057;-66
2021/01/20 00:39:54;;;;;;;117.85;66.07;;;;;;;;;;6219426;28;20092;-68
2021/01/20 00:42:55;;;;;;;111.30;62.72;;;;;;;;;;6228522;28;20379;-66
2021/01/20 00:45:56;;;;;;;108.45;59.85;;;;;;;;;;6214658;28;20045;-67
2021/01/20 00:48:57;;;;;;;111.88;61.88;;;;;;;;;;6212244;28;20463;-66
2021/01/20 00:51:59;;;;;;;107.38;59.92;;;;;;;;;;6209583;28;20137;-67
2021/01/20 00:55:00;;;;;;;110.65;60.72;;;;;;;;;;6216021;28;20099;-67
2021/01/20 00:58:01;;;;;;;114.75;62.78;;;;;;;;;;6208213;28;20133;-66
2021/01/20 01:01:02;;;;;;;111.75;60.40;;;;;;;;;;6209973;28;20049;-67
2021/01/20 01:04:03;;;;;;;107.93;57.72;;;;;;;;;;6209164;28;20504;-67
2021/01/20 01:07:05;;;;;;;115.55;63.08;;;;;;;;;;6208806;28;20081;-67
2021/01/20 01:10:08;;;;;;;115.00;62.92;;;;;;;;;;6207292;28;20050;-67
2021/01/20 01:13:09;;;;;;;107.70;60.40;;;;;;;;;;6205476;28;20038;-66
2021/01/20 01:16:10;;;;;;;111.88;60.67;;;;;;;;;;6211355;28;20105;-69
2021/01/20 01:19:11;;;;;;;114.43;60.88;;;;;;;;;;6211573;28;20642;-66
2021/01/20 01:22:13;;;;;;;110.82;60.63;;;;;;;;;;6209290;28;20096;-66
2021/01/20 01:25:14;;;;;;;106.45;59.85;;;;;;;;;;6211130;28;20609;-67
2021/01/20 01:28:16;;;;;;;118.35;62.20;;;;;;;;;;6209312;28;20509;-67
2021/01/20 01:31:17;;;;;;;112.68;61.60;;;;;;;;;;6217495;28;20080;-66
2021/01/20 01:34:18;;;;;;;114.03;62.90;;;;;;;;;;6214782;28;20038;-68
2021/01/20 01:37:20;;;;;;;115.20;60.58;;;;;;;;;;6217630;28;20137;-68
2021/01/20 01:40:21;;;;;;;118.15;61.15;;;;;;;;;;6216530;28;20095;-66
2021/01/20 01:43:23;;;;;;;120.10;64.97;;;;;;;;;;6214555;28;20042;-68
2021/01/20 01:46:24;;;;;;;123.90;61.40;;;;;;;;;;6211438;28;20132;-66
2021/01/20 01:49:26;;;;;;;117.78;60.53;;;;;;;;;;6218041;28;20041;-66
2021/01/20 01:52:29;;;;;;;120.22;60.92;;;;;;;;;;6221853;28;20089;-65
2021/01/20 01:55:30;;;;;;;123.88;63.28;;;;;;;;;;6216932;28;20038;-66
2021/01/20 01:58:31;;;;;;;118.15;62.42;;;;;;;;;;6216657;28;20045;-66
2021/01/20 02:01:32;;;;;;;114.85;59.90;;;;;;;;;;6208501;28;20045;-66
2021/01/20 02:04:33;;;;;;;127.72;62.67;;;;;;;;;;6208122;28;20057;-67
2021/01/20 02:07:36;;;;;;;120.47;61.17;;;;;;;;;;6213766;28;20046;-69
2021/01/20 02:10:37;;;;;;;119.97;60.67;;;;;;;;;;6216983;28;20045;-66
2021/01/20 02:13:41;;;;;;;131.90;63.22;;;;;;;;;;6210813;28;20069;-67
2021/01/20 02:16:52;;;;;;;123.88;60.78;;;;;;;;;;6195724;28;20497;-69
2021/01/20 02:20:29;;;;;;;126.72;59.53;;;;;;;;;;6206355;28;20049;-68
2021/01/20 02:23:31;;;;;;;124.75;58.72;;;;;;;;;;6209186;28;20053;-66
2021/01/20 02:26:38;;;;;;;129.13;66.32;;;;;;;;;;6209465;28;20054;-66
2021/01/20 02:30:04;;;;;;;120.85;60.53;;;;;;;;;;6214267;28;20097;-66
2021/01/20 02:33:06;;;;;;;136.00;65.95;;;;;;;;;;6220607;28;20049;-68
2021/01/20 02:36:08;;;;;;;132.20;64.45;;;;;;;;;;6232500;28;20149;-65
2021/01/20 02:39:09;;;;;;;131.95;64.35;;;;;;;;;;6211282;28;20056;-66
2021/01/20 02:42:10;;;;;;;133.75;67.13;;;;;;;;;;6208988;28;20042;-67
2021/01/20 02:45:13;;;;;;;142.05;71.80;;;;;;;;;;6205869;28;20046;-66
2021/01/20 02:48:15;;;;;;;151.35;80.82;;;;;;;;;;6215249;28;20042;-66
2021/01/20 02:51:19;;;;;;;136.38;69.32;;;;;;;;;;6216056;28;20041;-66
2021/01/20 02:54:21;;;;;;;130.10;65.90;;;;;;;;;;6217982;28;20652;-67
2021/01/20 02:57:22;;;;;;;129.18;67.60;;;;;;;;;;6216591;28;20068;-68
2021/01/20 03:00:25;;;;;;;126.35;66.25;;;;;;;;;;6220320;28;20132;-67
2021/01/20 03:03:26;;;;;;;129.48;65.10;;;;;;;;;;6207414;28;20054;-67
2021/01/20 03:06:28;;;;;;;119.95;63.75;;;;;;;;;;6210070;28;20492;-67
2021/01/20 03:09:30;;;;;;;127.25;65.95;;;;;;;;;;6222740;28;20073;-68
2021/01/20 03:12:31;;;;;;;129.77;65.57;;;;;;;;;;6224751;28;20049;-67
2021/01/20 03:15:36;;;;;;;126.18;62.80;;;;;;;;;;6214808;28;20157;-68
2021/01/20 03:18:37;;;;;;;122.38;63.45;;;;;;;;;;6210782;28;20057;-68
2021/01/20 03:21:38;;;;;;;114.13;60.30;;;;;;;;;;6218838;28;20051;-67
2021/01/20 03:24:39;;;;;;;119.05;58.28;;;;;;;;;;6218657;28;20137;-67
2021/01/20 03:27:40;;;;;;;122.38;61.45;;;;;;;;;;6219484;28;20221;-68
2021/01/20 03:30:42;;;;;;;114.93;59.35;;;;;;;;;;6217036;28;20521;-67
2021/01/20 03:33:43;;;;;;;112.35;58.55;;;;;;;;;;6219816;28;20042;-68
2021/01/20 03:36:44;;;;;;;112.40;58.60;;;;;;;;;;6212853;28;20045;-67
2021/01/20 03:39:45;;;;;;;112.97;57.28;;;;;;;;;;6210798;28;20041;-67
2021/01/20 03:42:46;;;;;;;115.47;58.65;;;;;;;;;;6212789;28;20584;-67
2021/01/20 03:45:48;;;;;;;108.60;57.63;;;;;;;;;;6210866;28;20092;-68
2021/01/20 03:48:49;;;;;;;112.90;58.70;;;;;;;;;;6216407;28;20465;-67
2021/01/20 03:51:50;;;;;;;108.25;56.17;;;;;;;;;;6216921;28;20068;-67
2021/01/20 03:54:51;;;;;;;114.65;57.35;;;;;;;;;;6212691;28;20105;-66
2021/01/20 03:57:52;;;;;;;111.07;57.15;;;;;;;;;;6221593;28;20045;-67
2021/01/20 04:00:53;;;;;;;108.25;56.42;;;;;;;;;;6211934;28;20107;-67
2021/01/20 04:03:54;;;;;;;111.43;55.53;;;;;;;;;;6214840;28;20536;-67
2021/01/20 04:06:55;;;;;;;102.22;54.05;;;;;;;;;;6212497;28;20145;-68
2021/01/20 04:09:56;;;;;;;103.60;54.20;;;;;;;;;;6215631;28;20541;-67
2021/01/20 04:12:57;;;;;;;107.50;55.47;;;;;;;;;;6217299;28;20132;-68
2021/01/20 04:15:59;;;;;;;99.47;54.17;;;;;;;;;;6210076;28;20801;-67
2021/01/20 04:19:02;;;;;;;104.85;54.55;;;;;;;;;;6218726;28;20087;-67
2021/01/20 04:22:03;;;;;;;106.35;55.33;;;;;;;;;;6208166;28;20060;-69
2021/01/20 04:25:05;;;;;;;104.07;55.03;;;;;;;;;;6213349;28;20598;-69
2021/01/20 04:28:06;;;;;;;105.95;54.05;;;;;;;;;;6216044;28;20056;-70
2021/01/20 04:31:08;;;;;;;109.60;56.83;;;;;;;;;;6229312;28;20459;-68
2021/01/20 04:34:09;;;;;;;106.45;55.70;;;;;;;;;;6218349;28;20382;-69
2021/01/20 04:37:10;;;;;;;104.60;56.90;;;;;;;;;;6206106;28;20061;-68
2021/01/20 04:40:12;;;;;;;104.32;56.03;;;;;;;;;;6212909;28;20056;-68
2021/01/20 04:43:13;;;;;;;104.18;56.60;;;;;;;;;;6211756;28;20180;-70
2021/01/20 04:46:15;;;;;;;111.30;56.13;;;;;;;;;;6218035;28;20046;-68
2021/01/20 04:49:16;;;;;;;107.57;54.72;;;;;;;;;;6224463;28;20046;-68
2021/01/20 04:52:19;;;;;;;111.40;57.25;;;;;;;;;;6213068;28;20041;-68
2021/01/20 04:55:20;;;;;;;116.28;59.60;;;;;;;;;;6208763;28;20060;-68
2021/01/20 04:58:21;;;;;;;109.85;55.80;;;;;;;;;;6210932;28;20054;-68
2021/01/20 05:01:24;;;;;;;134.88;58.67;;;;;;;;;;6210663;28;20215;-68
2021/01/20 05:04:25;;;;;;;119.85;58.67;;;;;;;;;;6212471;28;20050;-68
2021/01/20 05:07:26;;;;;;;119.97;58.15;;;;;;;;;;6213655;28;20448;-68
2021/01/20 05:10:27;;;;;;;118.60;58.58;;;;;;;;;;6215105;28;20044;-69
2021/01/20 05:13:29;;;;;;;123.72;56.65;;;;;;;;;;6206941;28;20052;-69
2021/01/20 05:16:31;;;;;;;115.95;57.55;;;;;;;;;;6215823;28;20050;-67
2021/01/20 05:19:34;;;;;;;120.45;61.25;;;;;;;;;;6216509;28;20061;-68
2021/01/20 05:22:55;;;;;;;129.68;63.13;;;;;;;;;;6216267;28;20076;-67
2021/01/20 05:25:56;;;;;;;129.88;58.72;;;;;;;;;;6216384;28;20042;-68
2021/01/20 05:28:57;;;;;;;128.23;62.22;;;;;;;;;;6213539;28;20042;-68
2021/01/20 05:32:16;;;;;;;126.22;61.67;;;;;;;;;;6220156;28;20087;-68
2021/01/20 05:35:20;;;;;;;132.23;63.22;;;;;;;;;;6206001;28;20128;-68
2021/01/20 05:38:32;;;;;;;131.73;64.47;;;;;;;;;;6213184;28;20042;-68
2021/01/20 05:41:33;;;;;;;128.93;63.22;;;;;;;;;;6214167;28;20405;-68
2021/01/20 05:44:35;;;;;;;130.95;60.85;;;;;;;;;;6223879;28;20052;-67
2021/01/20 05:47:37;;;;;;;133.35;62.70;;;;;;;;;;6215707;28;20051;-69
2021/01/20 05:50:54;;;;;;;131.85;61.60;;;;;;;;;;6219072;28;20084;-68
2021/01/20 05:53:56;;;;;;;133.70;64.68;;;;;;;;;;6216280;28;20040;-66
2021/01/20 05:57:13;;;;;;;131.10;61.63;;;;;;;;;;6217024;28;20065;-66
2021/01/20 06:00:15;;;;;;;133.55;62.53;;;;;;;;;;6219380;28;20049;-68
2021/01/20 06:03:17;;;;;;;139.00;66.32;;;;;;;;;;6215616;28;20084;-66
2021/01/20 06:06:19;;;;;;;141.70;63.53;;;;;;;;;;6222005;28;20038;-67
2021/01/20 06:09:21;;;;;;;132.88;67.30;;;;;;;;;;6214304;28;20050;-67
2021/01/20 06:12:22;;;;;;;142.80;66.90;;;;;;;;;;6214212;28;20064;-67
2021/01/20 06:15:23;;;;;;;144.98;69.63;;;;;;;;;;6217003;28;20049;-66
2021/01/20 06:18:28;;;;;;;148.02;70.53;;;;;;;;;;6214370;28;20045;-66
2021/01/20 06:21:30;;;;;;;134.40;68.40;;;;;;;;;;6216273;28;20087;-66
2021/01/20 06:24:38;;;;;;;154.43;72.68;;;;;;;;;;6217050;28;20042;-68
2021/01/20 06:27:41;;;;;;;141.63;71.28;;;;;;;;;;6213450;28;20062;-70
2021/01/20 06:30:44;;;;;;;140.53;70.93;;;;;;;;;;6214761;28;20108;-67
2021/01/20 06:33:46;;;;;;;138.80;70.70;;;;;;;;;;6215635;28;20052;-67
2021/01/20 06:36:47;;;;;;;144.82;69.72;;;;;;;;;;6209605;28;20404;-69
2021/01/20 06:39:48;;;;;;;149.40;72.43;;;;;;;;;;6215653;28;20121;-68
2021/01/20 06:42:50;;;;;;;149.85;72.28;;;;;;;;;;6211886;28;20489;-66
2021/01/20 06:46:10;;;;;;;136.00;68.60;;;;;;;;;;6215631;28;20057;-69
2021/01/20 06:49:12;;;;;;;141.82;70.60;;;;;;;;;;6215770;28;20038;-69
2021/01/20 06:52:14;;;;;;;149.95;76.22;;;;;;;;;;6216823;28;20723;-66
2021/01/20 06:55:30;;;;;;;143.00;74.63;;;;;;;;;;6217264;28;20064;-67
2021/01/20 06:58:31;;;;;;;151.57;76.80;;;;;;;;;;6212852;28;20076;-67
2021/01/20 07:01:32;;;;;;;156.68;79.03;;;;;;;;;;6212929;28;20041;-67
2021/01/20 07:04:53;;;;;;;149.15;78.63;;;;;;;;;;6215131;28;20123;-67
2021/01/20 07:07:56;;;;;;;158.98;78.32;;;;;;;;;;6222131;28;20046;-66
2021/01/20 07:11:02;;;;;;;148.52;77.32;;;;;;;;;;6213999;28;20061;-68
2021/01/20 07:14:03;;;;;;;161.15;80.80;;;;;;;;;;6218215;28;20052;-65
2021/01/20 07:17:06;;;;;;;158.55;78.47;;;;;;;;;;6206671;28;20060;-66
2021/01/20 07:20:09;;;;;;;128.20;62.37;;;;;;;;;;6219148;28;20045;-66
2021/01/20 07:23:11;;;;;;;156.10;80.70;;;;;;;;;;6212655;28;20045;-69
2021/01/20 07:26:13;;;;;;;160.75;81.22;;;;;;;;;;6211049;28;20054;-68
2021/01/20 07:29:15;;;;;;;155.55;79.88;;;;;;;;;;6215585;28;20065;-68
2021/01/20 07:32:16;;;;;;;159.85;79.10;;;;;;;;;;6215008;28;20062;-69
2021/01/20 07:35:18;;;;;;;156.88;79.35;;;;;;;;;;6220131;28;20118;-68
2021/01/20 07:38:19;;;;;;;157.43;79.22;;;;;;;;;;6220961;28;20501;-69
2021/01/20 07:41:21;;;;;;;158.48;76.40;;;;;;;;;;6218042;28;20121;-66
2021/01/20 07:44:22;;;;;;;146.70;75.60;;;;;;;;;;6221064;28;20164;-66
2021/01/20 07:47:23;;;;;;;163.68;79.70;;;;;;;;;;6214531;28;20068;-70
2021/01/20 07:50:38;;;;;;;158.88;76.78;;;;;;;;;;6214577;28;20133;-69
2021/01/20 07:53:39;;;;;;;151.48;78.85;;;;;;;;;;6213279;28;20056;-66
2021/01/20 07:56:41;;;;;;;158.13;78.03;;;;;;;;;;6212529;28;20416;-68
2021/01/20 07:59:42;;;;;;;156.77;80.75;;;;;;;;;;6219149;28;20050;-66
2021/01/20 08:02:46;;;;;;;156.63;76.78;;;;;;;;;;6211183;28;20055;-65
2021/01/20 08:05:48;;;;;;;162.55;81.43;;;;;;;;;;6216860;28;20045;-66
2021/01/20 08:08:54;;;;;;;156.48;79.78;;;;;;;;;;6215689;28;20052;-65
2021/01/20 08:11:55;;;;;;;153.43;81.75;;;;;;;;;;6218019;28;20064;-66
2021/01/20 08:14:57;;;;;;;148.02;78.80;;;;;;;;;;6218960;28;20042;-65
2021/01/20 08:17:58;;;;;;;151.60;78.75;;;;;;;;;;6217103;28;20148;-66
2021/01/20 08:21:00;;;;;;;150.48;79.70;;;;;;;;;;6222673;28;20062;-65
2021/01/20 08:24:05;;;;;;;160.13;81.43;;;;;;;;;;6222748;28;20558;-66
2021/01/20 08:27:06;;;;;;;151.48;79.88;;;;;;;;;;6210300;28;20054;-66
2021/01/20 08:30:08;;;;;;;154.63;83.18;;;;;;;;;;6214383;28;20596;-65
2021/01/20 08:33:11;;;;;;;159.63;81.97;;;;;;;;;;6213615;28;20054;-64
2021/01/20 08:36:22;;;;;;;154.00;78.40;;;;;;;;;;6212407;28;20046;-66
2021/01/20 08:39:24;;;;;;;152.85;79.05;;;;;;;;;;6217083;28;20132;-65
2021/01/20 08:42:28;;;;;;;149.02;79.55;;;;;;;;;;6215479;28;20038;-65
2021/01/20 08:45:33;;;;;;;148.43;78.22;;;;;;;;;;6216732;28;20057;-66
2021/01/20 08:48:34;;;;;;;151.07;82.32;;;;;;;;;;6214106;28;20104;-66
2021/01/20 08:51:36;;;;;;;151.27;80.45;;;;;;;;;;6214276;28;20050;-65
2021/01/20 08:54:47;;;;;;;157.52;80.75;;;;;;;;;;6212877;28;20416;-67
2021/01/20 08:57:48;;;;;;;152.85;81.65;;;;;;;;;;6213545;28;20132;-65
2021/01/20 09:00:51;;;;;;;154.90;81.38;;;;;;;;;;6212561;28;20129;-66
2021/01/20 09:03:55;;;;;;;153.18;83.20;;;;;;;;;;6215335;28;20171;-65
2021/01/20 09:06:57;;;;;;;154.98;81.60;;;;;;;;;;6216581;28;20121;-65
2021/01/20 09:09:58;;;;;;;156.10;79.85;;;;;;;;;;6215320;28;20046;-66
2021/01/20 09:12:59;;;;;;;162.18;81.50;;;;;;;;;;6213494;28;20054;-64
2021/01/20 09:16:01;;;;;;;160.23;82.30;;;;;;;;;;6213942;28;21619;-65
2021/01/20 09:19:02;;;;;;;158.77;85.68;;;;;;;;;;6212780;28;20042;-67
2021/01/20 09:22:04;;;;;;;153.30;80.72;;;;;;;;;;6210846;28;20045;-69
2021/01/20 09:25:06;;;;;;;151.15;81.15;;;;;;;;;;6212208;28;20132;-68
2021/01/20 09:28:07;;;;;;;156.88;82.95;;;;;;;;;;6213291;28;20046;-66
2021/01/20 09:31:08;;;;;;;154.57;82.22;;;;;;;;;;6217370;28;20097;-67
2021/01/20 09:34:09;;;;;;;159.77;83.80;;;;;;;;;;6216262;28;20096;-67
2021/01/20 09:37:11;;;;;;;149.25;79.03;;;;;;;;;;6216154;28;20056;-67
2021/01/20 09:40:14;;;;;;;143.40;80.25;;;;;;;;;;6212872;28;20048;-67
2021/01/20 09:43:16;;;;;;;149.15;82.43;;;;;;;;;;6211609;28;20057;-68
2021/01/20 09:46:17;;;;;;;152.43;86.18;;;;;;;;;;6215494;28;20660;-68
2021/01/20 09:49:18;;;;;;;158.52;84.88;;;;;;;;;;6215920;28;20057;-66
2021/01/20 09:52:25;;;;;;;144.02;77.97;;;;;;;;;;6215972;28;20038;-66
2021/01/20 09:55:26;;;;;;;145.15;80.00;;;;;;;;;;6213669;28;20053;-70
2021/01/20 09:58:27;;;;;;;150.30;84.45;;;;;;;;;;6218141;28;20448;-64
2021/01/20 10:01:28;;;;;;;148.88;80.95;;;;;;;;;;6216821;28;20052;-66
2021/01/20 10:04:29;;;;;;;142.50;79.78;;;;;;;;;;6217480;28;20052;-66
2021/01/20 10:07:31;;;;;;;146.88;81.53;;;;;;;;;;6215029;28;20072;-66
2021/01/20 10:10:32;;;;;;;152.13;83.18;;;;;;;;;;6212338;28;20136;-66
2021/01/20 10:13:33;;;;;;;145.82;82.00;;;;;;;;;;6216399;28;20046;-65
2021/01/20 10:16:34;;;;;;;147.57;84.65;;;;;;;;;;6204664;28;20136;-66
2021/01/20 10:19:35;;;;;;;147.38;83.57;;;;;;;;;;6213801;28;20128;-66
2021/01/20 10:22:37;;;;;;;148.38;82.72;;;;;;;;;;6211059;28;20173;-67
2021/01/20 10:25:38;;;;;;;142.95;83.05;;;;;;;;;;6212999;28;20065;-65
2021/01/20 10:28:41;;;;;;;145.18;80.95;;;;;;;;;;6211742;28;20057;-69
2021/01/20 10:31:42;;;;;;;136.60;78.28;;;;;;;;;;6221892;28;20668;-66
2021/01/20 10:34:43;;;;;;;147.27;82.68;;;;;;;;;;6218099;28;20092;-70
2021/01/20 10:37:46;;;;;;;153.63;83.72;;;;;;;;;;6217314;28;20128;-65
2021/01/20 10:40:47;;;;;;;146.05;81.15;;;;;;;;;;6217016;28;20134;-67
2021/01/20 10:43:48;;;;;;;147.65;82.18;;;;;;;;;;6219431;28;20048;-68
2021/01/20 10:46:49;;;;;;;149.38;83.65;;;;;;;;;;6200635;28;20104;-68
2021/01/20 10:49:50;;;;;;;146.73;83.43;;;;;;;;;;6206505;28;20061;-68
2021/01/20 10:52:52;;;;;;;149.75;84.75;;;;;;;;;;6212336;28;20409;-67
2021/01/20 10:55:53;;;;;;;151.82;83.20;;;;;;;;;;6213609;28;20093;-68
2021/01/20 10:58:54;;;;;;;149.82;84.93;;;;;;;;;;6219781;28;21579;-68
2021/01/20 11:01:55;;;;;;;151.43;82.72;;;;;;;;;;6219683;28;20042;-68
2021/01/20 11:04:56;;;;;;;150.70;84.22;;;;;;;;;;6219851;28;20067;-67
2021/01/20 11:07:58;;;;;;;145.57;84.35;;;;;;;;;;6213309;28;20163;-67
2021/01/20 11:10:59;;;;;;;149.15;83.93;;;;;;;;;;6212680;28;20042;-68
2021/01/20 11:14:01;;;;;;;147.95;81.63;;;;;;;;;;6215982;28;20069;-68
2021/01/20 11:17:02;;;;;;;146.30;85.45;;;;;;;;;;6215566;28;20152;-67
2021/01/20 11:20:03;;;;;;;146.98;83.68;;;;;;;;;;6214618;28;20188;-69
2021/01/20 11:23:05;;;;;;;145.68;82.70;;;;;;;;;;6214597;28;20229;-67
2021/01/20 11:26:08;;;;;;;150.15;82.78;;;;;;;;;;6213845;28;20049;-71
2021/01/20 11:29:09;;;;;;;146.48;82.35;;;;;;;;;;6212585;28;20163;-66
2021/01/20 11:32:10;;;;;;;151.23;83.50;;;;;;;;;;6213298;28;20107;-71
2021/01/20 11:35:13;;;;;;;145.60;84.72;;;;;;;;;;6210174;28;20050;-68
2021/01/20 11:38:14;;;;;;;140.90;84.32;;;;;;;;;;6213580;28;20053;-69
2021/01/20 11:41:15;;;;;;;136.60;80.85;;;;;;;;;;6213963;28;20046;-69
2021/01/20 11:44:16;;;;;;;137.48;79.18;;;;;;;;;;6219975;28;20132;-68
2021/01/20 11:47:17;;;;;;;145.45;80.47;;;;;;;;;;6215290;28;20064;-72
2021/01/20 11:50:19;;;;;;;142.77;82.85;;;;;;;;;;6218075;28;20045;-68
2021/01/20 11:53:21;;;;;;;146.38;77.35;;;;;;;;;;6218762;28;20084;-68
2021/01/20 11:56:22;;;;;;;141.65;80.45;;;;;;;;;;6213884;28;20512;-68
2021/01/20 11:59:23;;;;;;;146.25;80.85;;;;;;;;;;6216862;28;20575;-71
2021/01/20 12:02:24;;;;;;;140.55;78.68;;;;;;;;;;6209197;28;20053;-68
2021/01/20 12:05:25;;;;;;;144.23;80.97;;;;;;;;;;6211946;28;20422;-68
2021/01/20 12:08:27;;;;;;;141.23;80.57;;;;;;;;;;6214386;28;20164;-69
2021/01/20 12:11:28;;;;;;;138.80;79.93;;;;;;;;;;6221824;28;20682;-69
2021/01/20 12:14:29;;;;;;;138.73;80.35;;;;;;;;;;6213187;28;20137;-69
2021/01/20 12:17:30;;;;;;;139.18;80.53;;;;;;;;;;6210426;28;20125;-71
2021/01/20 12:20:31;;;;;;;140.32;80.88;;;;;;;;;;6206529;28;20049;-69
2021/01/20 12:23:33;;;;;;;140.63;78.68;;;;;;;;;;6217794;28;20054;-69
2021/01/20 12:26:34;;;;;;;141.20;77.35;;;;;;;;;;6217716;28;20058;-70
2021/01/20 12:29:36;;;;;;;137.52;80.70;;;;;;;;;;6211807;28;20135;-69
2021/01/20 12:32:37;;;;;;;139.18;81.78;;;;;;;;;;6219126;28;20487;-69
2021/01/20 12:35:38;;;;;;;147.65;82.80;;;;;;;;;;6213697;28;20103;-72
2021/01/20 12:38:39;;;;;;;136.32;81.93;;;;;;;;;;6216969;28;20419;-69
2021/01/20 12:41:40;;;;;;;139.88;80.60;;;;;;;;;;6216738;28;20505;-68
2021/01/20 12:44:41;;;;;;;144.55;82.70;;;;;;;;;;6225238;28;20053;-68
2021/01/20 12:47:42;;;;;;;145.00;86.70;;;;;;;;;;6217292;28;20054;-68
2021/01/20 12:50:44;;;;;;;144.00;82.47;;;;;;;;;;6210400;28;20592;-67
2021/01/20 12:53:45;;;;;;;148.45;85.80;;;;;;;;;;6214831;28;20053;-67
2021/01/20 12:56:46;;;;;;;148.10;84.60;;;;;;;;;;6214044;28;20053;-69
2021/01/20 12:59:47;;;;;;;152.55;87.70;;;;;;;;;;6218553;28;20042;-65
2021/01/20 13:02:49;;;;;;;150.50;86.30;;;;;;;;;;6217810;28;20034;-66
2021/01/20 13:05:50;;;;;;;143.30;86.15;;;;;;;;;;6222224;28;20065;-66
2021/01/20 13:08:52;;;;;;;148.07;86.05;;;;;;;;;;6214878;28;20042;-66
2021/01/20 13:11:53;;;;;;;144.68;84.97;;;;;;;;;;6209216;28;20054;-66
2021/01/20 13:14:54;;;;;;;153.30;86.10;;;;;;;;;;6214057;28;20046;-69
2021/01/20 13:17:55;;;;;;;151.48;85.82;;;;;;;;;;6209998;28;20136;-69
2021/01/20 13:20:56;;;;;;;152.88;86.55;;;;;;;;;;6205040;28;20723;-66
2021/01/20 13:23:58;;;;;;;141.15;86.05;;;;;;;;;;6212561;28;20125;-66
2021/01/20 13:26:59;;;;;;;155.40;88.25;;;;;;;;;;6215247;28;20084;-67
2021/01/20 13:30:01;;;;;;;149.82;87.68;;;;;;;;;;6222000;28;20069;-66
2021/01/20 13:33:02;;;;;;;148.45;87.95;;;;;;;;;;6217598;28;20049;-69
2021/01/20 13:36:06;;;;;;;158.98;89.07;;;;;;;;;;6220543;28;20053;-66
2021/01/20 13:39:08;;;;;;;150.07;86.65;;;;;;;;;;6220160;28;20046;-66
2021/01/20 13:42:09;;;;;;;159.07;90.80;;;;;;;;;;6216742;28;20137;-66
2021/01/20 13:45:11;;;;;;;152.02;88.50;;;;;;;;;;6215458;28;20402;-66
2021/01/20 13:48:12;;;;;;;150.38;85.40;;;;;;;;;;6212318;28;20473;-65
2021/01/20 13:51:13;;;;;;;154.52;88.20;;;;;;;;;;6210725;28;20056;-67
2021/01/20 13:54:15;;;;;;;154.50;88.97;;;;;;;;;;6214623;28;20144;-66
2021/01/20 13:57:16;;;;;;;154.20;89.28;;;;;;;;;;6216295;28;20042;-66
2021/01/20 14:00:18;;;;;;;159.82;92.38;;;;;;;;;;6214160;28;20444;-66
2021/01/20 14:03:19;;;;;;;155.63;89.93;;;;;;;;;;6211989;28;20408;-69
2021/01/20 14:06:20;;;;;;;161.23;90.75;;;;;;;;;;6205901;28;20058;-66
2021/01/20 14:09:22;;;;;;;156.50;89.85;;;;;;;;;;6205952;28;20049;-66
2021/01/20 14:12:23;;;;;;;153.93;89.65;;;;;;;;;;6210059;28;20065;-66
2021/01/20 14:15:24;;;;;;;158.13;92.43;;;;;;;;;;6212240;28;20060;-67
2021/01/20 14:18:25;;;;;;;154.75;89.93;;;;;;;;;;6210025;28;20045;-66
2021/01/20 14:21:26;;;;;;;156.70;90.60;;;;;;;;;;6209334;28;20045;-68
2021/01/20 14:24:28;;;;;;;158.75;92.18;;;;;;;;;;6211487;28;20053;-68
2021/01/20 14:27:32;;;;;;;158.38;91.93;;;;;;;;;;6217919;28;20054;-69
2021/01/20 14:30:33;;;;;;;157.40;89.63;;;;;;;;;;6218565;28;20060;-67
2021/01/20 14:33:34;;;;;;;165.77;91.85;;;;;;;;;;6218876;28;20050;-70
2021/01/20 14:36:35;;;;;;;164.95;90.68;;;;;;;;;;6211810;28;20503;-66
2021/01/20 14:39:37;;;;;;;165.40;91.45;;;;;;;;;;6207995;28;20440;-66
2021/01/20 14:42:38;;;;;;;167.15;90.28;;;;;;;;;;6205436;28;20497;-66
2021/01/20 14:45:39;;;;;;;168.23;90.30;;;;;;;;;;6212803;28;20087;-69
2021/01/20 14:48:40;;;;;;;155.63;89.57;;;;;;;;;;6223766;28;20045;-65
2021/01/20 14:51:41;;;;;;;167.32;90.82;;;;;;;;;;6213968;28;20123;-66
2021/01/20 14:54:45;;;;;;;159.63;89.55;;;;;;;;;;6206643;28;20057;-66
2021/01/20 14:57:46;;;;;;;166.57;92.78;;;;;;;;;;6203981;28;20046;-65
2021/01/20 15:00:47;;;;;;;164.63;90.25;;;;;;;;;;6209443;28;20145;-65
2021/01/20 15:03:48;;;;;;;175.38;91.55;;;;;;;;;;6208728;28;20065;-65
2021/01/20 15:06:49;;;;;;;170.45;93.35;;;;;;;;;;6208198;28;20194;-65
2021/01/20 15:09:51;;;;;;;171.05;93.18;;;;;;;;;;6214909;28;20141;-66
2021/01/20 15:12:52;;;;;;;165.20;87.82;;;;;;;;;;6209091;28;20507;-65
2021/01/20 15:15:53;;;;;;;162.77;91.30;;;;;;;;;;6208233;28;20050;-67
2021/01/20 15:18:55;;;;;;;163.40;92.65;;;;;;;;;;6216017;28;20053;-66
2021/01/20 15:21:56;;;;;;;161.73;90.40;;;;;;;;;;6211430;28;20050;-66
2021/01/20 15:24:58;;;;;;;160.02;89.35;;;;;;;;;;6212136;28;20041;-66
2021/01/20 15:27:59;;;;;;;163.10;90.43;;;;;;;;;;6216464;28;20725;-66
2021/01/20 15:31:00;;;;;;;169.00;90.38;;;;;;;;;;6212510;28;20477;-66
2021/01/20 15:34:01;;;;;;;158.15;86.47;;;;;;;;;;6208558;28;20065;-66
2021/01/20 15:37:03;;;;;;;165.18;89.88;;;;;;;;;;6213620;28;20041;-68
2021/01/20 15:40:06;;;;;;;169.40;91.70;;;;;;;;;;6206881;28;20060;-66
2021/01/20 15:43:07;;;;;;;166.45;92.30;;;;;;;;;;6202759;28;20069;-68
2021/01/20 15:46:08;;;;;;;164.88;89.53;;;;;;;;;;6206031;28;20125;-66
2021/01/20 15:49:09;;;;;;;163.57;88.47;;;;;;;;;;6206840;28;20041;-65
2021/01/20 15:52:10;;;;;;;158.98;86.32;;;;;;;;;;6211672;28;20056;-66
2021/01/20 15:55:16;;;;;;;158.68;88.72;;;;;;;;;;6212905;28;20052;-65
2021/01/20 15:58:17;;;;;;;159.68;87.60;;;;;;;;;;6214380;28;20042;-66
2021/01/20 16:01:18;;;;;;;159.43;87.35;;;;;;;;;;6217839;28;20481;-66
2021/01/20 16:04:19;;;;;;;156.98;87.72;;;;;;;;;;6211872;28;20128;-68
2021/01/20 16:07:20;;;;;;;159.15;85.55;;;;;;;;;;6215385;28;20054;-66
2021/01/20 16:10:22;;;;;;;147.32;82.82;;;;;;;;;;6215234;28;20091;-66
2021/01/20 16:13:23;;;;;;;153.20;85.78;;;;;;;;;;6216244;28;20497;-66
2021/01/20 16:16:24;;;;;;;147.35;79.93;;;;;;;;;;6216221;28;20057;-66
2021/01/20 16:19:25;;;;;;;142.88;81.03;;;;;;;;;;6218546;28;20050;-66
2021/01/20 16:22:26;;;;;;;141.23;80.10;;;;;;;;;;6209168;28;20056;-66
2021/01/20 16:25:28;;;;;;;145.55;83.40;;;;;;;;;;6215659;28;20057;-67
2021/01/20 16:28:29;;;;;;;140.60;79.65;;;;;;;;;;6217323;28;20390;-66
2021/01/20 16:31:30;;;;;;;147.82;81.15;;;;;;;;;;6216385;28;20723;-68
2021/01/20 16:34:32;;;;;;;146.25;81.40;;;;;;;;;;6214274;28;20050;-66
2021/01/20 16:37:33;;;;;;;148.70;82.15;;;;;;;;;;6213005;28;20071;-66
2021/01/20 16:40:35;;;;;;;147.27;81.95;;;;;;;;;;6212088;28;20046;-66
2021/01/20 16:43:36;;;;;;;153.20;85.10;;;;;;;;;;6215633;28;20358;-67
2021/01/20 16:46:37;;;;;;;143.70;79.40;;;;;;;;;;6215717;28;20054;-67
2021/01/20 16:49:38;;;;;;;160.10;86.45;;;;;;;;;;6209860;28;20477;-66
2021/01/20 16:52:39;;;;;;;144.23;81.55;;;;;;;;;;6209380;28;20081;-67
2021/01/20 16:55:41;;;;;;;161.43;87.88;;;;;;;;;;6210369;28;20068;-67
2021/01/20 16:58:42;;;;;;;152.98;83.47;;;;;;;;;;6210596;28;20046;-66
2021/01/20 17:01:45;;;;;;;164.45;84.68;;;;;;;;;;6211754;28;20387;-69
2021/01/20 17:04:46;;;;;;;154.32;83.95;;;;;;;;;;6210116;28;20084;-66
2021/01/20 17:07:47;;;;;;;159.57;87.60;;;;;;;;;;6215800;28;20833;-67
2021/01/20 17:10:50;;;;;;;163.70;89.90;;;;;;;;;;6218530;28;20125;-66
2021/01/20 17:13:51;;;;;;;151.90;81.97;;;;;;;;;;6215558;28;20067;-66
2021/01/20 17:16:53;;;;;;;153.90;83.88;;;;;;;;;;6209705;28;20042;-68
2021/01/20 17:19:54;;;;;;;150.02;81.75;;;;;;;;;;6211182;28;20358;-66
2021/01/20 17:22:55;;;;;;;157.95;84.40;;;;;;;;;;6214201;28;20049;-66